Terminal Aerodrome Forecast
Issued by NWS

Current Version | Previous Version | Graphics & Text | Print | Product List | Glossary On
Versions: 1 2 3 4 5 6 7 8 9 10 11 12 13 14 15 16
040
FTUS41 KPBZ 201958 AAA
TAFHLG
TAF AMD
KHLG 201958Z 2020/2118 21012G25KT P6SM BKN035
     FM210300 20008KT 5SM -SHRA VCTS OVC040CB
     FM210700 23010KT P6SM -SHRA OVC025
     FM211100 28010KT P6SM BKN015
     FM211400 28012KT P6SM BKN035=

USA.gov is the U.S. government's official web portal to all federal, state and local government web resources and services.